Time;durP1;ratioP1;P1;durP2;ratioP2;P2;SDS_P1;SDS_P2;PMS_P1;PMS_P2;Temp;Humidity;BMP_temperature;BMP_pressure;BME280_temperature;BME280_humidity;BME280_pressure;Samples;Min_cycle;Max_cycle;Signal;HPM_P1;HPM_P2
2022/08/10 00:00:19;;;;;;;2.17;1.60;;;;;;;22.26;45.03;102607.09;4965897;28;124081;-75
2022/08/10 00:02:48;;;;;;;2.05;1.50;;;;;;;22.20;45.28;102607.50;4966742;28;123736;-75
2022/08/10 00:05:16;;;;;;;4.50;1.80;;;;;;;22.17;45.30;102610.41;4968165;28;113812;-75
2022/08/10 00:07:44;;;;;;;2.20;1.58;;;;;;;22.11;45.39;102602.69;4967202;28;113798;-75
2022/08/10 00:10:13;;;;;;;2.60;1.60;;;;;;;22.06;45.48;102599.47;4969357;28;123979;-75
2022/08/10 00:12:41;;;;;;;2.10;1.50;;;;;;;22.02;45.55;102598.78;4968978;28;123978;-75
2022/08/10 00:15:22;;;;;;;1.98;1.52;;;;;;;21.97;45.68;102601.78;4966685;28;114256;-75
2022/08/10 00:18:09;;;;;;;1.80;1.50;;;;;;;21.94;45.70;102596.59;4940201;28;113179;-75
2022/08/10 00:20:54;;;;;;;2.60;1.50;;;;;;;21.91;45.74;102596.78;4960710;28;125028;-75
2022/08/10 00:23:22;;;;;;;2.05;1.77;;;;;;;21.86;45.85;102598.91;4977373;28;125134;-75
2022/08/10 00:25:49;;;;;;;3.90;2.10;;;;;;;21.83;46.12;102592.84;4974384;28;114323;-75
2022/08/10 00:28:16;;;;;;;2.05;1.58;;;;;;;21.78;46.07;102590.47;4994347;28;115768;-74
2022/08/10 00:30:43;;;;;;;3.80;2.10;;;;;;;21.74;46.08;102588.94;4975966;28;124115;-75
2022/08/10 00:33:10;;;;;;;2.20;1.85;;;;;;;21.72;46.50;102590.88;4983649;28;123413;-75
2022/08/10 00:35:37;;;;;;;2.22;1.45;;;;;;;21.70;46.52;102584.69;4968961;28;114071;-75
2022/08/10 00:38:05;;;;;;;2.72;1.73;;;;;;;21.69;46.42;102591.06;4952042;28;113951;-75
2022/08/10 00:40:32;;;;;;;2.67;1.77;;;;;;;21.67;46.47;102587.59;4971070;28;124435;-74
2022/08/10 00:43:05;;;;;;;2.38;1.95;;;;;;;21.66;46.88;102592.13;4952256;28;123577;-74
2022/08/10 00:45:33;;;;;;;3.72;1.80;;;;;;;21.64;46.83;102594.03;4955603;28;114852;-75
2022/08/10 00:48:00;;;;;;;2.65;1.80;;;;;;;21.61;46.72;102588.00;4967236;28;112300;-75
2022/08/10 00:50:27;;;;;;;2.30;1.92;;;;;;;21.55;46.77;102584.72;4967440;28;123755;-74
2022/08/10 00:52:55;;;;;;;2.95;2.00;;;;;;;21.51;46.90;102577.78;4969213;28;123768;-75
2022/08/10 00:55:22;;;;;;;4.90;1.88;;;;;;;21.47;47.05;102584.31;4967050;28;113816;-74
2022/08/10 00:57:50;;;;;;;3.03;2.00;;;;;;;21.44;47.11;102580.94;4950567;28;111909;-75
2022/08/10 01:00:24;;;;;;;3.15;1.95;;;;;;;21.40;47.37;102580.28;4949159;28;123333;-74
2022/08/10 01:02:51;;;;;;;3.95;2.00;;;;;;;21.35;47.38;102577.84;4967256;28;124014;-75
2022/08/10 01:05:20;;;;;;;3.10;1.95;;;;;;;21.32;47.52;102575.38;4951084;28;113372;-75
2022/08/10 01:08:06;;;;;;;3.75;2.28;;;;;;;21.30;47.50;102568.31;4966827;28;113969;-75
2022/08/10 01:10:50;;;;;;;4.30;2.30;;;;;;;21.26;47.66;102573.03;4966186;28;122750;-75
2022/08/10 01:13:36;;;;;;;2.42;1.90;;;;;;;21.22;47.56;102570.66;4967173;28;123972;-75
2022/08/10 01:16:32;;;;;;;2.88;1.92;;;;;;;21.19;47.55;102577.97;4959535;28;115437;-75
2022/08/10 01:19:06;;;;;;;3.25;2.05;;;;;;;21.17;47.76;102569.13;4968373;28;116183;-74
2022/08/10 01:21:45;;;;;;;2.97;2.00;;;;;;;21.14;47.78;102569.28;4953624;28;122888;-75
2022/08/10 01:24:59;;;;;;;3.85;2.10;;;;;;;21.10;47.68;102573.16;4971298;28;124512;-75
2022/08/10 01:27:40;;;;;;;3.15;2.20;;;;;;;21.07;47.69;102570.63;4970313;28;114034;-75
2022/08/10 01:30:09;;;;;;;2.75;2.03;;;;;;;21.05;48.01;102575.25;4970127;28;114221;-75
2022/08/10 01:32:41;;;;;;;3.13;2.00;;;;;;;21.03;48.07;102571.78;4970555;28;125254;-75
2022/08/10 01:35:14;;;;;;;2.80;2.38;;;;;;;21.00;48.31;102566.56;4970739;28;123051;-75
2022/08/10 01:38:04;;;;;;;2.83;2.53;;;;;;;20.96;48.38;102559.66;4969434;28;114921;-75
2022/08/10 01:40:34;;;;;;;4.50;2.40;;;;;;;20.95;48.63;102563.31;4954559;28;113345;-75
2022/08/10 01:43:05;;;;;;;3.60;2.47;;;;;;;20.92;48.71;102561.66;4970829;28;123721;-75
2022/08/10 01:45:40;;;;;;;5.35;2.47;;;;;;;20.91;48.61;102567.16;4953537;28;123559;-75
2022/08/10 01:48:30;;;;;;;2.90;2.25;;;;;;;20.88;48.63;102567.34;4952376;28;114843;-74
2022/08/10 01:51:13;;;;;;;3.25;2.47;;;;;;;20.85;48.77;102564.84;4937035;28;113197;-74
2022/08/10 01:53:55;;;;;;;3.90;2.45;;;;;;;20.82;48.61;102557.81;4936058;28;123363;-74
2022/08/10 01:56:25;;;;;;;3.10;2.50;;;;;;;20.82;49.04;102562.34;4970192;28;124009;-74
2022/08/10 01:59:00;;;;;;;3.97;2.50;;;;;;;20.82;49.00;102562.34;4971196;28;116877;-74
2022/08/10 02:01:31;;;;;;;3.63;2.30;;;;;;;20.83;49.13;102559.53;4970321;28;112808;-75
2022/08/10 02:04:04;;;;;;;5.03;2.35;;;;;;;20.83;49.32;102558.69;4954755;28;123932;-75
2022/08/10 02:06:39;;;;;;;3.92;2.50;;;;;;;20.82;49.17;102559.66;4969065;28;123457;-75
2022/08/10 02:09:07;;;;;;;4.90;2.40;;;;;;;20.82;49.00;102563.22;4954881;28;115124;-74
2022/08/10 02:11:36;;;;;;;3.13;2.33;;;;;;;20.80;49.27;102565.13;4969403;28;114274;-74
2022/08/10 02:14:28;;;;;;;4.80;2.53;;;;;;;20.77;49.21;102560.78;4958488;28;123956;-74
2022/08/10 02:17:22;;;;;;;6.30;2.60;;;;;;;20.73;49.35;102570.00;4968192;28;123097;-75
2022/08/10 02:20:21;;;;;;;3.83;2.60;;;;;;;20.72;49.36;102568.28;4953113;28;112018;-74
2022/08/10 02:22:55;;;;;;;4.28;2.63;;;;;;;20.70;49.46;102567.53;4941640;28;113118;-75
2022/08/10 02:25:23;;;;;;;3.40;2.55;;;;;;;20.70;49.57;102564.81;4952078;28;122799;-73
2022/08/10 02:28:13;;;;;;;3.45;2.58;;;;;;;20.68;49.61;102566.75;4969017;28;123889;-75
2022/08/10 02:31:01;;;;;;;5.60;2.80;;;;;;;20.66;49.53;102568.63;4967765;28;114330;-74
2022/08/10 02:33:30;;;;;;;3.80;2.78;;;;;;;20.64;49.74;102570.56;4967746;28;114702;-74
2022/08/10 02:36:06;;;;;;;4.17;2.67;;;;;;;20.61;49.79;102570.75;4969366;28;124302;-75
2022/08/10 02:38:39;;;;;;;3.38;2.55;;;;;;;20.59;49.97;102567.25;4967349;28;123617;-74
2022/08/10 02:41:33;;;;;;;3.80;2.60;;;;;;;20.54;49.82;102566.66;4969427;28;114156;-74
2022/08/10 02:44:44;;;;;;;3.60;2.90;;;;;;;20.52;49.76;102566.75;4943829;28;114244;-75
2022/08/10 02:47:42;;;;;;;5.35;2.78;;;;;;;20.50;49.76;102567.81;4946014;28;124347;-74
2022/08/10 02:50:18;;;;;;;4.95;2.72;;;;;;;20.47;49.66;102559.91;4966955;28;123610;-74
2022/08/10 02:53:17;;;;;;;4.30;2.90;;;;;;;20.42;49.76;102558.38;4969068;28;113957;-75
2022/08/10 02:56:17;;;;;;;3.63;2.90;;;;;;;20.38;49.99;102553.25;4962091;28;114497;-75
2022/08/10 02:59:00;;;;;;;4.28;2.88;;;;;;;20.32;50.00;102549.09;4950721;28;123404;-74
2022/08/10 03:01:32;;;;;;;3.50;2.90;;;;;;;20.29;50.20;102538.53;4967989;28;124642;-75
2022/08/10 03:04:05;;;;;;;3.30;2.75;;;;;;;20.23;50.31;102549.66;4935595;28;114453;-75
2022/08/10 03:06:43;;;;;;;4.57;3.05;;;;;;;20.20;50.60;102539.06;4962497;28;113991;-75
2022/08/10 03:09:13;;;;;;;4.70;2.97;;;;;;;20.16;50.50;102545.59;4951382;28;123224;-74
2022/08/10 03:11:44;;;;;;;4.38;3.45;;;;;;;20.12;50.82;102541.34;4951355;28;123789;-74
2022/08/10 03:14:33;;;;;;;4.07;2.90;;;;;;;20.09;50.75;102547.75;4969106;28;114150;-74
2022/08/10 03:17:01;;;;;;;4.90;3.20;;;;;;;20.06;50.96;102541.69;4951940;28;113961;-74
2022/08/10 03:19:30;;;;;;;5.15;3.20;;;;;;;20.01;51.07;102540.13;4968140;28;123834;-74
2022/08/10 03:22:18;;;;;;;3.67;3.00;;;;;;;19.99;51.05;102541.19;4951392;28;123123;-75
2022/08/10 03:24:46;;;;;;;4.28;3.47;;;;;;;19.96;51.08;102544.91;4954229;28;114082;-74
2022/08/10 03:27:15;;;;;;;4.10;3.13;;;;;;;19.94;51.21;102544.13;4971063;28;114080;-74
2022/08/10 03:29:43;;;;;;;3.75;3.10;;;;;;;19.92;51.23;102546.03;4964230;28;124155;-74
2022/08/10 03:32:32;;;;;;;5.80;3.28;;;;;;;19.88;51.21;102544.47;4950904;28;123696;-74
2022/08/10 03:35:00;;;;;;;5.03;3.20;;;;;;;19.88;51.40;102543.63;4969283;28;113824;-74
2022/08/10 03:37:27;;;;;;;4.88;3.47;;;;;;;19.86;51.42;102541.03;4966621;28;113679;-74
2022/08/10 03:39:54;;;;;;;4.32;3.28;;;;;;;19.84;51.70;102548.31;4968694;28;125191;-74
2022/08/10 03:42:22;;;;;;;4.90;3.55;;;;;;;19.82;51.49;102537.63;4950957;28;123463;-74
2022/08/10 03:44:51;;;;;;;6.32;3.35;;;;;;;19.79;51.58;102542.31;4968649;28;114287;-74
2022/08/10 03:47:22;;;;;;;4.18;3.30;;;;;;;19.77;51.71;102538.84;4952058;28;113657;-74
2022/08/10 03:49:50;;;;;;;4.32;3.42;;;;;;;19.72;51.75;102538.22;4950468;28;124376;-74
2022/08/10 03:52:18;;;;;;;5.53;3.47;;;;;;;19.68;51.88;102542.03;4967848;28;124935;-74
2022/08/10 03:54:46;;;;;;;5.47;4.00;;;;;;;19.61;51.99;102537.00;4950368;28;114177;-75
2022/08/10 03:57:13;;;;;;;4.38;3.35;;;;;;;19.56;52.29;102536.38;4951536;28;114315;-74
2022/08/10 03:59:40;;;;;;;5.35;4.03;;;;;;;19.53;52.36;102533.88;4968569;28;124212;-74
2022/08/10 04:02:08;;;;;;;4.63;3.65;;;;;;;19.50;52.46;102539.44;4966619;28;123976;-74
2022/08/10 04:04:55;;;;;;;5.13;3.83;;;;;;;19.47;52.32;102544.97;4967947;28;113846;-74
2022/08/10 04:07:22;;;;;;;5.38;3.80;;;;;;;19.45;52.39;102538.81;4958179;28;113395;-74
2022/08/10 04:09:50;;;;;;;5.03;3.55;;;;;;;19.43;52.69;102538.03;4958037;28;123621;-74
2022/08/10 04:12:23;;;;;;;4.70;3.83;;;;;;;19.41;52.74;102545.31;4966145;28;124296;-74
2022/08/10 04:14:50;;;;;;;4.95;3.90;;;;;;;19.38;52.87;102540.09;4968153;28;114989;-74
2022/08/10 04:17:21;;;;;;;7.10;4.20;;;;;;;19.35;53.10;102546.50;4952641;28;113558;-74
2022/08/10 04:20:24;;;;;;;5.43;4.07;;;;;;;19.31;52.90;102536.00;4965524;28;124359;-74
2022/08/10 04:22:59;;;;;;;5.05;3.80;;;;;;;19.31;52.98;102544.06;4966811;28;123642;-74
2022/08/10 04:25:26;;;;;;;5.25;3.90;;;;;;;19.26;53.12;102537.13;4965964;28;114063;-74
2022/08/10 04:27:54;;;;;;;5.18;4.00;;;;;;;19.23;53.23;102534.63;4950806;28;113389;-74
2022/08/10 04:30:22;;;;;;;5.35;3.92;;;;;;;19.21;53.27;102533.84;4967986;28;123937;-75
2022/08/10 04:32:55;;;;;;;5.97;3.90;;;;;;;19.19;53.45;102533.06;4961413;28;124160;-74
2022/08/10 04:35:24;;;;;;;6.20;3.92;;;;;;;19.18;53.44;102534.00;4944221;28;113004;-74
2022/08/10 04:37:54;;;;;;;4.63;3.72;;;;;;;19.17;53.51;102532.25;4966888;28;114029;-74
2022/08/10 04:40:22;;;;;;;6.30;4.38;;;;;;;19.16;53.52;102535.91;4950705;28;123555;-74
2022/08/10 04:43:04;;;;;;;5.88;3.88;;;;;;;19.15;53.42;102534.16;4952503;28;123847;-74
2022/08/10 04:45:41;;;;;;;8.48;4.03;;;;;;;19.13;53.67;102535.22;4950556;28;114592;-74
2022/08/10 04:48:19;;;;;;;5.30;3.80;;;;;;;19.11;53.85;102532.59;4966697;28;114497;-74
2022/08/10 04:51:07;;;;;;;7.82;4.10;;;;;;;19.11;53.85;102535.28;4965954;28;124609;-74
2022/08/10 04:53:46;;;;;;;4.90;3.85;;;;;;;19.13;53.65;102535.22;4966034;28;123443;-74
2022/08/10 04:56:37;;;;;;;6.40;4.15;;;;;;;19.11;53.90;102537.97;4951964;28;113316;-75
2022/08/10 04:59:06;;;;;;;6.07;4.15;;;;;;;19.13;53.98;102537.91;4971509;28;113185;-74
2022/08/10 05:01:34;;;;;;;6.55;3.95;;;;;;;19.14;54.02;102534.28;4968802;28;122870;-74
2022/08/10 05:04:22;;;;;;;5.18;3.97;;;;;;;19.12;54.04;102537.03;4969288;28;124782;-74
2022/08/10 05:07:13;;;;;;;9.90;4.53;;;;;;;19.14;54.21;102532.44;4971555;28;114556;-74
2022/08/10 05:09:45;;;;;;;6.13;4.30;;;;;;;19.16;54.17;102530.53;4954027;28;113784;-75
2022/08/10 05:12:35;;;;;;;7.88;4.38;;;;;;;19.18;54.32;102543.88;4955277;28;124623;-74
2022/08/10 05:15:17;;;;;;;6.57;4.63;;;;;;;19.18;54.34;102538.53;4969705;28;124486;-74
2022/08/10 05:17:44;;;;;;;6.88;4.13;;;;;;;19.18;54.53;102539.38;4952315;28;114046;-74
2022/08/10 05:20:31;;;;;;;6.70;4.43;;;;;;;19.20;54.43;102534.78;4936700;28;113801;-74
2022/08/10 05:22:59;;;;;;;6.88;4.55;;;;;;;19.22;54.66;102540.94;4939626;28;122087;-74
2022/08/10 05:25:26;;;;;;;6.22;4.63;;;;;;;19.25;54.43;102540.78;4967079;28;124438;-74
2022/08/10 05:27:53;;;;;;;6.57;4.85;;;;;;;19.29;54.64;102540.59;4971472;28;114223;-74
2022/08/10 05:30:23;;;;;;;7.03;5.05;;;;;;;19.30;54.78;102551.25;4954251;28;115133;-74
2022/08/10 05:32:50;;;;;;;6.70;4.80;;;;;;;19.32;54.70;102546.66;4953599;28;123726;-74
2022/08/10 05:35:26;;;;;;;;;;;;;;;19.32;54.11;102551.19;4954501;28;123952;-74
2022/08/10 05:37:57;;;;;;;7.53;4.65;;;;;;;19.39;54.23;102552.59;4953763;28;114665;-74
2022/08/10 05:40:41;;;;;;;5.70;4.50;;;;;;;19.42;54.80;102552.41;4938966;28;115196;-74
2022/08/10 05:43:18;;;;;;;6.15;4.38;;;;;;;19.46;54.81;102548.63;4951606;28;124026;-74
2022/08/10 05:45:47;;;;;;;6.95;4.78;;;;;;;19.47;54.91;102550.34;4970592;28;123048;-74
2022/08/10 05:48:36;;;;;;;7.47;4.78;;;;;;;19.52;54.75;102547.41;4955304;28;114463;-74
2022/08/10 05:51:24;;;;;;;7.65;4.57;;;;;;;19.57;54.82;102551.56;4975697;28;113772;-74
2022/08/10 05:53:51;;;;;;;7.00;4.80;;;;;;;19.61;54.83;102555.81;4944744;28;123306;-74
2022/08/10 05:56:36;;;;;;;6.60;4.53;;;;;;;19.69;54.97;102559.91;4950270;28;123962;-74
2022/08/10 05:59:30;;;;;;;7.07;4.32;;;;;;;19.75;55.04;102559.59;4953998;28;113253;-74
2022/08/10 06:02:23;;;;;;;7.38;4.50;;;;;;;19.82;54.92;102552.91;4941381;28;113755;-74
2022/08/10 06:05:08;;;;;;;6.30;5.03;;;;;;;19.89;55.01;102551.63;4968426;28;124723;-74
2022/08/10 06:07:45;;;;;;;8.25;5.32;;;;;;;19.93;54.89;102558.53;4969082;28;124162;-74
2022/08/10 06:10:14;;;;;;;7.13;5.00;;;;;;;19.99;55.01;102557.31;4970680;28;114160;-74
2022/08/10 06:16:06;;;;;;;8.43;4.85;;;;;;;20.13;54.87;102553.81;4952755;28;123910;-74
2022/08/10 06:18:34;;;;;;;6.90;4.75;;;;;;;20.20;55.17;102560.59;4969675;28;123680;-74
2022/08/10 06:21:02;;;;;;;6.50;5.07;;;;;;;20.28;55.03;102558.31;4953216;28;114407;-74
2022/08/10 06:23:30;;;;;;;7.72;5.10;;;;;;;20.36;55.22;102561.44;4953178;28;112027;-74
2022/08/10 06:25:58;;;;;;;7.65;5.32;;;;;;;20.43;55.28;102552.00;4970293;28;123800;-74
2022/08/10 06:28:42;;;;;;;7.07;4.75;;;;;;;20.54;55.21;102553.22;4979245;28;123575;-74
2022/08/10 06:31:26;;;;;;;7.75;4.40;;;;;;;20.66;54.99;102552.47;4957803;28;115263;-74
2022/08/10 06:33:53;;;;;;;7.30;4.60;;;;;;;20.74;54.94;102544.81;4952739;28;114817;-74
2022/08/10 06:36:21;;;;;;;7.50;4.90;;;;;;;20.87;54.81;102555.72;4969761;28;123976;-74
2022/08/10 06:38:50;;;;;;;5.75;4.50;;;;;;;20.97;54.68;102556.00;4970105;28;122904;-74
2022/08/10 06:41:23;;;;;;;8.20;5.15;;;;;;;21.08;54.52;102552.63;4952215;28;112637;-74
2022/08/10 06:44:16;;;;;;;7.13;4.60;;;;;;;21.22;54.51;102549.09;4969205;28;114228;-73
2022/08/10 06:46:48;;;;;;;7.95;4.70;;;;;;;21.34;54.57;102548.28;4983511;28;126016;-74
2022/08/10 06:49:20;;;;;;;7.22;5.10;;;;;;;21.47;54.12;102554.66;4959325;28;124282;-74
2022/08/10 06:51:53;;;;;;;6.50;4.68;;;;;;;21.60;53.96;102556.59;4979627;28;112946;-73
2022/08/10 06:54:26;;;;;;;9.07;4.80;;;;;;;21.73;53.72;102549.44;4982795;28;114472;-74
2022/08/10 06:56:55;;;;;;;6.55;4.55;;;;;;;21.85;53.72;102556.72;4977681;28;124418;-74
2022/08/10 06:59:47;;;;;;;8.32;4.65;;;;;;;21.99;53.19;102554.94;4974436;28;123023;-74
2022/08/10 07:02:24;;;;;;;8.18;4.30;;;;;;;22.11;53.09;102559.53;4976009;28;114227;-75
2022/08/10 07:04:58;;;;;;;8.10;4.40;;;;;;;22.23;52.81;102564.09;4961975;28;112227;-74
2022/08/10 07:07:29;;;;;;;6.57;4.35;;;;;;;22.38;52.59;102561.34;4966502;28;122786;-74
2022/08/10 07:09:58;;;;;;;7.70;3.83;;;;;;;22.51;52.25;102557.72;4980992;28;124006;-75
2022/08/10 07:12:27;;;;;;;8.77;4.38;;;;;;;22.68;52.07;102563.81;4985204;28;114858;-74
2022/08/10 07:14:57;;;;;;;10.82;4.07;;;;;;;22.82;51.86;102560.16;4975067;28;112455;-74
2022/08/10 07:17:27;;;;;;;9.25;4.38;;;;;;;22.98;51.52;102566.22;4980669;28;124469;-73
2022/08/10 07:19:56;;;;;;;7.20;3.92;;;;;;;23.18;51.57;102566.66;4994791;28;124518;-73
2022/08/10 07:22:30;;;;;;;5.07;3.40;;;;;;;23.36;51.10;102559.94;4977038;28;115023;-74
2022/08/10 07:25:21;;;;;;;4.38;3.45;;;;;;;23.52;50.67;102560.53;4990598;28;114531;-74
2022/08/10 07:27:49;;;;;;;5.18;3.42;;;;;;;23.70;50.65;102562.88;4990063;28;122096;-74
2022/08/10 07:30:30;;;;;;;4.50;3.65;;;;;;;23.87;49.99;102565.22;4958891;28;125607;-74
2022/08/10 07:32:59;;;;;;;5.30;3.50;;;;;;;24.03;49.76;102559.53;4952449;28;113446;-74
2022/08/10 07:35:28;;;;;;;6.13;3.60;;;;;;;24.15;49.22;102557.75;4967558;28;113942;-74
2022/08/10 07:38:06;;;;;;;6.07;3.42;;;;;;;24.25;48.82;102558.78;4965691;28;124130;-74
2022/08/10 07:40:35;;;;;;;5.88;3.40;;;;;;;24.39;48.68;102564.97;4969391;28;124019;-74
2022/08/10 07:43:03;;;;;;;6.97;3.60;;;;;;;24.52;48.50;102564.94;4969806;28;114164;-74
2022/08/10 07:45:32;;;;;;;5.40;3.10;;;;;;;24.65;48.18;102565.72;4968573;28;113783;-74
2022/08/10 07:48:14;;;;;;;4.75;3.05;;;;;;;24.79;48.20;102564.63;4968539;28;124534;-74
2022/08/10 07:50:43;;;;;;;5.25;3.15;;;;;;;24.96;47.90;102564.19;4967986;28;124258;-74
2022/08/10 07:53:25;;;;;;;4.82;2.97;;;;;;;25.12;47.19;102561.09;4951536;28;114732;-74
2022/08/10 07:55:54;;;;;;;4.60;2.80;;;;;;;25.25;46.90;102564.56;4969637;28;114737;-75
2022/08/10 07:58:39;;;;;;;3.17;2.47;;;;;;;25.37;46.85;102559.16;4966607;28;124489;-74
2022/08/10 08:01:22;;;;;;;2.88;2.30;;;;;;;25.52;46.07;102559.75;4968024;28;123989;-74
2022/08/10 08:03:50;;;;;;;3.87;2.40;;;;;;;25.67;46.11;102558.50;4950706;28;113337;-74
2022/08/10 08:06:41;;;;;;;5.03;2.72;;;;;;;25.87;45.94;102558.72;4955261;28;113485;-74
2022/08/10 08:09:09;;;;;;;3.72;2.67;;;;;;;26.03;45.83;102556.44;4947395;28;123764;-74
2022/08/10 08:11:40;;;;;;;2.83;2.50;;;;;;;26.21;45.71;102557.63;4962321;28;123043;-74
2022/08/10 08:14:08;;;;;;;2.88;2.20;;;;;;;26.37;45.31;102550.88;4951803;28;114261;-74
2022/08/10 08:16:39;;;;;;;10.20;2.20;;;;;;;26.52;44.02;102552.31;4969789;28;114829;-74
2022/08/10 08:19:07;;;;;;;4.35;1.98;;;;;;;26.65;43.43;102553.97;4946138;28;123250;-74
2022/08/10 08:21:56;;;;;;;2.72;2.00;;;;;;;26.75;43.39;102560.34;4943369;28;124244;-74
2022/08/10 08:24:44;;;;;;;2.38;1.58;;;;;;;26.91;43.31;102555.28;4964460;28;113802;-74
2022/08/10 08:27:16;;;;;;;4.40;1.77;;;;;;;27.11;42.85;102555.38;4961400;28;114580;-74
2022/08/10 08:29:45;;;;;;;3.28;1.70;;;;;;;27.26;42.25;102554.06;4977865;28;123774;-74
2022/08/10 08:32:16;;;;;;;4.38;1.85;;;;;;;27.38;41.85;102547.50;4976696;28;123622;-75
2022/08/10 08:34:46;;;;;;;2.50;1.80;;;;;;;27.50;41.91;102550.09;4976222;28;114504;-75
2022/08/10 08:37:15;;;;;;;1.95;1.70;;;;;;;27.62;41.30;102554.44;4960423;28;112115;-75
2022/08/10 08:40:06;;;;;;;4.95;1.83;;;;;;;27.73;41.08;102551.59;4974837;28;124424;-74
2022/08/10 08:42:55;;;;;;;2.67;1.90;;;;;;;27.82;40.62;102549.03;4969331;28;121987;-75
2022/08/10 08:45:50;;;;;;;5.63;1.98;;;;;;;27.93;40.54;102555.25;4931991;28;113572;-75
2022/08/10 08:48:56;;;;;;;3.92;2.28;;;;;;;28.04;40.50;102554.25;4967151;28;114067;-75
2022/08/10 08:51:26;;;;;;;2.35;1.67;;;;;;;28.12;40.50;102546.25;4945657;28;123697;-74
2022/08/10 08:54:29;;;;;;;3.40;1.83;;;;;;;28.26;40.39;102542.22;4965969;28;123990;-75
2022/08/10 08:57:09;;;;;;;4.43;2.08;;;;;;;28.41;40.08;102549.97;4966864;28;114211;-75
2022/08/10 08:59:55;;;;;;;5.28;2.00;;;;;;;28.58;40.31;102551.97;4966445;28;113905;-75
2022/08/10 09:03:06;;;;;;;2.83;1.70;;;;;;;28.75;39.87;102547.63;4966256;28;124525;-74
2022/08/10 09:05:44;;;;;;;3.80;2.00;;;;;;;28.91;39.35;102547.88;4950087;28;123375;-74
2022/08/10 09:08:51;;;;;;;3.22;2.10;;;;;;;29.03;39.19;102544.97;4951293;28;115002;-75
2022/08/10 09:11:28;;;;;;;4.70;1.90;;;;;;;29.12;38.64;102549.50;4967384;28;114825;-75
2022/08/10 09:14:35;;;;;;;3.17;1.83;;;;;;;29.24;38.87;102537.41;4965754;28;123915;-75
2022/08/10 09:17:22;;;;;;;3.00;1.90;;;;;;;29.39;38.87;102539.66;4941013;28;123341;-75
2022/08/10 09:20:11;;;;;;;3.53;1.90;;;;;;;29.51;38.48;102538.41;4950462;28;114016;-74
2022/08/10 09:22:50;;;;;;;4.05;2.00;;;;;;;29.61;37.70;102539.22;4950412;28;113464;-74
2022/08/10 09:25:20;;;;;;;6.10;2.00;;;;;;;29.72;37.68;102545.47;4964203;28;124256;-74
2022/08/10 09:28:10;;;;;;;3.50;2.28;;;;;;;29.77;37.40;102537.72;4948827;28;124291;-74
2022/08/10 09:30:45;;;;;;;2.97;2.30;;;;;;;29.85;36.92;102540.53;4950199;28;113081;-74
2022/08/10 09:33:56;;;;;;;5.97;2.30;;;;;;;29.93;36.54;102526.09;4965502;28;114414;-74
2022/08/10 09:36:54;;;;;;;3.65;2.30;;;;;;;30.00;36.29;102528.03;4952046;28;123166;-74
2022/08/10 09:39:43;;;;;;;2.97;2.10;;;;;;;30.05;36.30;102520.22;4968823;28;96855;-74
2022/08/10 09:42:30;;;;;;;4.20;2.20;;;;;;;30.13;35.95;102515.84;4969118;28;114469;-74
2022/08/10 09:45:01;;;;;;;3.70;2.20;;;;;;;30.18;35.59;102513.50;4970648;28;113194;-74
2022/08/10 09:47:55;;;;;;;4.82;2.42;;;;;;;30.21;35.83;102513.19;4969721;28;125176;-74
2022/08/10 09:50:54;;;;;;;3.28;2.45;;;;;;;30.25;35.04;102514.56;4963294;28;124362;-74
2022/08/10 09:53:53;;;;;;;2.95;2.28;;;;;;;30.28;34.68;102508.81;4969901;28;113830;-74
2022/08/10 09:56:42;;;;;;;4.95;2.35;;;;;;;30.32;34.95;102510.22;4971682;28;114472;-74
2022/08/10 09:59:41;;;;;;;3.00;2.20;;;;;;;30.41;35.27;102501.06;4964864;28;123719;-75
2022/08/10 10:02:58;;;;;;;3.08;2.45;;;;;;;30.58;35.36;102503.94;4959404;28;124516;-74
2022/08/10 10:05:48;;;;;;;2.63;2.10;;;;;;;30.67;34.94;102497.50;4968034;28;115210;-75
2022/08/10 10:08:42;;;;;;;4.28;2.17;;;;;;;30.74;34.58;102487.63;4960949;28;114370;-75
2022/08/10 10:11:30;;;;;;;2.95;2.00;;;;;;;30.80;34.26;102492.44;4961356;28;124731;-74
2022/08/10 10:14:18;;;;;;;4.88;2.65;;;;;;;30.82;33.97;102490.38;4947131;28;124645;-74
2022/08/10 10:17:06;;;;;;;4.28;2.20;;;;;;;30.89;33.83;102487.00;4954137;28;113699;-74
2022/08/10 10:20:06;;;;;;;4.43;2.22;;;;;;;30.95;33.68;102479.03;4967132;28;113793;-74
2022/08/10 10:22:56;;;;;;;4.15;2.45;;;;;;;31.04;33.83;102471.69;4971541;28;124038;-74
2022/08/10 10:25:43;;;;;;;4.57;2.80;;;;;;;31.14;33.18;102472.44;4953003;28;123952;-74
2022/08/10 10:28:36;;;;;;;3.35;2.40;;;;;;;31.19;32.57;102469.19;4970730;28;114777;-74
2022/08/10 10:31:30;;;;;;;3.17;2.28;;;;;;;31.22;32.71;102463.38;4946019;28;114100;-74
2022/08/10 10:34:05;;;;;;;5.00;2.53;;;;;;;31.29;32.13;102463.56;4950430;28;124517;-74
2022/08/10 10:36:34;;;;;;;4.40;2.40;;;;;;;31.34;31.85;102455.72;4969928;28;123701;-74
2022/08/10 10:39:02;;;;;;;2.70;2.20;;;;;;;31.39;32.21;102459.66;4953200;28;113379;-74
2022/08/10 10:41:40;;;;;;;6.95;2.10;;;;;;;31.46;32.17;102454.38;4970858;28;114170;-74
2022/08/10 10:44:45;;;;;;;3.58;1.95;;;;;;;31.54;32.37;102462.63;4942590;28;124516;-74
2022/08/10 10:47:45;;;;;;;3.88;2.30;;;;;;;31.63;31.93;102456.16;4941225;28;122140;-74
2022/08/10 10:50:20;;;;;;;3.88;1.98;;;;;;;31.74;32.16;102451.34;4952657;28;113673;-75
2022/08/10 10:53:16;;;;;;;3.55;2.00;;;;;;;31.88;31.84;102447.94;4969235;28;113612;-74
2022/08/10 10:55:47;;;;;;;3.03;2.35;;;;;;;31.96;31.74;102445.19;4936528;28;123241;-75
2022/08/10 10:58:46;;;;;;;4.03;2.65;;;;;;;32.02;30.72;102443.66;4969079;28;124601;-75
2022/08/10 11:01:33;;;;;;;7.50;2.40;;;;;;;32.01;30.69;102437.31;4968374;28;116040;-75
2022/08/10 11:04:26;;;;;;;4.53;2.33;;;;;;;32.01;30.91;102430.97;4968672;28;114592;-75
2022/08/10 11:07:22;;;;;;;3.28;2.25;;;;;;;32.06;31.00;102422.25;4950944;28;123634;-75
2022/08/10 11:10:01;;;;;;;4.10;2.22;;;;;;;32.15;30.68;102427.53;4971974;28;123556;-75
2022/08/10 11:12:56;;;;;;;2.70;2.50;;;;;;;32.20;30.25;102424.31;4941582;28;112504;-74
2022/08/10 11:15:40;;;;;;;3.70;2.53;;;;;;;32.21;29.52;102431.47;4968687;28;114001;-74
2022/08/10 11:18:34;;;;;;;2.80;2.17;;;;;;;32.18;29.68;102421.72;4975506;28;123993;-75
2022/08/10 11:21:20;;;;;;;3.55;2.25;;;;;;;32.17;29.49;102424.63;4979084;28;124138;-75
2022/08/10 11:24:04;;;;;;;3.05;2.30;;;;;;;32.15;29.91;102423.97;4952881;28;113508;-74
2022/08/10 11:27:04;;;;;;;3.58;2.38;;;;;;;32.18;29.76;102415.41;4956084;28;114223;-74
2022/08/10 11:29:38;;;;;;;3.75;2.30;;;;;;;32.22;30.08;102411.28;4954540;28;123284;-75
2022/08/10 11:32:17;;;;;;;2.70;2.30;;;;;;;32.29;29.75;102415.03;4983141;28;124552;-75
2022/08/10 11:35:00;;;;;;;5.45;2.33;;;;;;;32.40;29.91;102409.16;4968839;28;114353;-75
2022/08/10 11:37:51;;;;;;;3.55;2.20;;;;;;;32.55;29.89;102416.66;4937956;28;113481;-75
2022/08/10 11:40:51;;;;;;;3.78;2.58;;;;;;;32.67;29.86;102418.03;4952851;28;123715;-75
2022/08/10 11:43:25;;;;;;;4.10;2.17;;;;;;;32.73;29.59;102414.56;4975560;28;122615;-75
2022/08/10 11:46:30;;;;;;;4.07;2.40;;;;;;;32.80;30.05;102402.91;4970483;28;112957;-74
2022/08/10 11:49:21;;;;;;;2.63;2.03;;;;;;;32.86;29.20;102402.16;4968662;28;114004;-75
2022/08/10 11:51:54;;;;;;;4.05;2.13;;;;;;;32.88;29.16;102405.59;4967929;28;122689;-74
2022/08/10 11:54:42;;;;;;;2.50;2.05;;;;;;;32.92;29.00;102390.47;4953264;28;123390;-74
2022/08/10 11:57:11;;;;;;;5.15;2.45;;;;;;;33.01;28.52;102403.13;4971591;28;115813;-75
2022/08/10 11:59:55;;;;;;;3.72;2.20;;;;;;;33.03;28.54;102401.03;4975775;28;115767;-75
2022/08/10 12:02:47;;;;;;;3.63;2.20;;;;;;;33.07;28.00;102393.31;4964253;28;123661;-75
2022/08/10 12:05:26;;;;;;;2.90;1.73;;;;;;;33.13;27.81;102388.00;4952100;28;122766;-75
2022/08/10 12:08:17;;;;;;;2.00;1.77;;;;;;;33.24;28.04;102388.59;4983614;28;117113;-74
2022/08/10 12:11:04;;;;;;;3.55;2.03;;;;;;;33.33;28.25;102382.00;4977219;28;114958;-75
2022/08/10 12:13:48;;;;;;;2.53;2.10;;;;;;;33.42;27.88;102380.91;4963689;28;123132;-75